• Join FlightAware (Why Join?)
  • Login
  • US Flag 
12:07AM EDT


 

Airport Tracker/Info


-or-


 

Live Flight TrackerFlight Track Log ✈ EJA922 ✈ 27-Jun-2013 ✈ KOMA - KSTC

Flight Track Log - Related Links

Times and Time Zones

All times are in EDT time to prevent confusion due to time zone crossing. See the EJA922 flight status page for this flight to view local times or setup timezone preferences in your user account.

Time Position Orientation Groundspeed Altitude Reporting Facility
EDT Latitude Longitude Course Direction KTS MPH feet Rate Location/Type
10:44AM 41.3153 -95.9117 35° Northeast 169 194 2,100  Level Minneapolis Center
10:45AM 41.3778 -95.8542 35° Northeast 223 257 5,700 2,640 Climbing Minneapolis Center
10:46AM 41.4428 -95.7994 32° Northeast 278 320 8,200 2,580 Climbing Minneapolis Center
10:47AM 41.4856 -95.7022 60° Northeast 308 354 11,100 2,400 Climbing Minneapolis Center
10:48AM 41.5242 -95.5825 67° East 346 398 13,200 1,980 Climbing Minneapolis Center
10:49AM 41.5683 -95.4486 66° East 387 445 15,200 1,920 Climbing Minneapolis Center
10:50AM 41.6150 -95.3064 66° East 409 471 17,200 2,100 Climbing Minneapolis Center
10:51AM 41.6714 -95.1319 67° East 423 487 19,600 1,920 Climbing Minneapolis Center
10:52AM 41.7181 -94.9861 67° East 426 490 21,200 1,200 Climbing Minneapolis Center
10:54AM 41.7675 -94.8333 67° East 442 509 22,200 840 Climbing Minneapolis Center
10:55AM 41.8181 -94.6744 67° East 457 526 23,000 660 Climbing Minneapolis Center
10:56AM 41.9125 -94.5547 43° Northeast 476 548 23,600 900 Climbing Minneapolis Center
10:57AM 42.0600 -94.5236 North 448 516 24,900 720 Climbing Minneapolis Center
10:58AM 42.1856 -94.5086 North 451 519 25,100 720 Climbing Minneapolis Center
10:59AM 42.3136 -94.4939 North 458 527 26,400 900 Climbing Minneapolis Center
11:00AM 42.4381 -94.4767 North 453 521 27,000 240 Climbing Minneapolis Center
11:01AM 42.5600 -94.4600 North 453 521 27,000  Level Minneapolis Center
11:02AM 42.6881 -94.4436 North 458 527 27,000  Level Minneapolis Center
11:03AM 42.8167 -94.4269 North 462 532 27,000  Level Minneapolis Center
11:04AM 42.9678 -94.4075 North 463 533 27,000  Level Minneapolis Center
11:05AM 43.0936 -94.3917 North 458 527 27,000  Level Minneapolis Center
11:06AM 43.2158 -94.3775 North 450 518 27,000  Level Minneapolis Center
11:07AM 43.3431 -94.3603 North 442 509 27,000  Level Minneapolis Center
11:08AM 43.4636 -94.3447 North 439 505 27,000  Level Minneapolis Center
11:09AM 43.6092 -94.3247 North 438 504 27,000  Level Minneapolis Center
11:10AM 43.7300 -94.3089 North 438 504 27,000  Level Minneapolis Center
11:11AM 43.8508 -94.2931 North 437 503 27,000  Level Minneapolis Center
11:12AM 43.9722 -94.2761 North 437 503 27,000  Level Minneapolis Center
11:13AM 44.0931 -94.2597 North 437 503 27,000 -600 Level Minneapolis Center
11:14AM 44.2158 -94.2419 North 441 507 25,800 -1,620 Descending Minneapolis Center
11:15AM 44.3686 -94.2233 North 456 525 23,700 -2,160 Descending Minneapolis Center
11:16AM 44.4833 -94.2267 359° North 414 476 21,400 -1,800 Descending Minneapolis Center
11:17AM 44.5964 -94.2553 350° North 410 472 20,000 -1,380 Descending Minneapolis Center
11:18AM 44.7058 -94.2797 351° North 401 461 18,600 -1,740 Descending Minneapolis Center
11:19AM 44.8131 -94.3069 350° North 394 453 16,500 -2,160 Descending Minneapolis Center
11:20AM 44.9128 -94.2861 North 364 419 14,200 -2,520 Descending Minneapolis Center
11:21AM 45.0192 -94.2472 14° North 332 382 11,300 -2,280 Descending Minneapolis Center
11:23AM 45.1153 -94.2133 14° North 304 350 9,000 -1,740 Descending Minneapolis Center
11:24AM 45.1903 -94.1864 14° North 285 328 7,400 -1,680 Descending Minneapolis Center
11:25AM 45.2600 -94.1622 14° North 265 305 5,600 -1,200 Descending Minneapolis Center
11:26AM 45.3275 -94.1386 14° North 254 292 5,000 -720 Descending Minneapolis Center
11:27AM 45.3897 -94.1056 20° North 242 278 4,200 -960 Descending Minneapolis Center
11:28AM 45.4461 -94.0458 37° Northeast 213 245 3,100 -900 Descending Minneapolis Center
11:29AM 45.4889 -94.0122 29° Northeast 187 215 2,400 -420 Descending Minneapolis Center
11:30AM 45.5303 -93.9994 12° North 177 204 2,300 -120 Descending Minneapolis Center